sensor_id;sensor_type;location;lat;lon;timestamp;P1;durP1;ratioP1;P2;durP2;ratioP2
21266;SDS011;10791;53.108;18.326;2023-05-09T00:04:30;37.70;;;19.70;;
21266;SDS011;10791;53.108;18.326;2023-05-09T00:09:34;40.53;;;19.60;;
21266;SDS011;10791;53.108;18.326;2023-05-09T00:14:37;57.80;;;23.73;;
21266;SDS011;10791;53.108;18.326;2023-05-09T00:19:42;52.37;;;24.80;;
21266;SDS011;10791;53.108;18.326;2023-05-09T00:24:46;54.97;;;21.67;;
21266;SDS011;10791;53.108;18.326;2023-05-09T00:29:50;25.73;;;14.97;;
21266;SDS011;10791;53.108;18.326;2023-05-09T00:34:53;29.77;;;15.47;;
21266;SDS011;10791;53.108;18.326;2023-05-09T00:39:56;24.57;;;14.07;;
21266;SDS011;10791;53.108;18.326;2023-05-09T00:44:59;22.50;;;13.30;;
21266;SDS011;10791;53.108;18.326;2023-05-09T00:50:02;25.00;;;13.83;;
21266;SDS011;10791;53.108;18.326;2023-05-09T00:55:06;20.67;;;13.00;;
21266;SDS011;10791;53.108;18.326;2023-05-09T01:00:10;22.10;;;13.30;;
21266;SDS011;10791;53.108;18.326;2023-05-09T01:05:14;20.83;;;12.43;;
21266;SDS011;10791;53.108;18.326;2023-05-09T01:10:32;20.60;;;13.50;;
21266;SDS011;10791;53.108;18.326;2023-05-09T01:15:50;21.63;;;12.80;;
21266;SDS011;10791;53.108;18.326;2023-05-09T01:21:05;20.00;;;11.60;;
21266;SDS011;10791;53.108;18.326;2023-05-09T01:26:16;25.97;;;12.80;;
21266;SDS011;10791;53.108;18.326;2023-05-09T01:31:27;23.37;;;14.63;;
21266;SDS011;10791;53.108;18.326;2023-05-09T01:36:31;23.83;;;14.77;;
21266;SDS011;10791;53.108;18.326;2023-05-09T01:41:35;29.97;;;16.03;;
21266;SDS011;10791;53.108;18.326;2023-05-09T01:46:39;33.20;;;15.43;;
21266;SDS011;10791;53.108;18.326;2023-05-09T01:51:43;32.23;;;15.70;;
21266;SDS011;10791;53.108;18.326;2023-05-09T01:56:48;25.90;;;14.57;;
21266;SDS011;10791;53.108;18.326;2023-05-09T02:01:52;21.50;;;13.47;;
21266;SDS011;10791;53.108;18.326;2023-05-09T02:06:57;22.17;;;13.33;;
21266;SDS011;10791;53.108;18.326;2023-05-09T02:12:01;20.67;;;14.27;;
21266;SDS011;10791;53.108;18.326;2023-05-09T02:17:05;41.90;;;19.20;;
21266;SDS011;10791;53.108;18.326;2023-05-09T02:22:11;32.13;;;15.97;;
21266;SDS011;10791;53.108;18.326;2023-05-09T02:27:14;24.87;;;14.30;;
21266;SDS011;10791;53.108;18.326;2023-05-09T02:32:20;27.17;;;16.80;;
21266;SDS011;10791;53.108;18.326;2023-05-09T02:37:25;26.23;;;16.03;;
21266;SDS011;10791;53.108;18.326;2023-05-09T02:42:29;24.50;;;14.97;;
21266;SDS011;10791;53.108;18.326;2023-05-09T02:47:32;26.50;;;14.40;;
21266;SDS011;10791;53.108;18.326;2023-05-09T02:52:36;22.73;;;13.73;;
21266;SDS011;10791;53.108;18.326;2023-05-09T02:57:39;27.53;;;14.93;;
21266;SDS011;10791;53.108;18.326;2023-05-09T03:02:42;22.57;;;13.87;;
21266;SDS011;10791;53.108;18.326;2023-05-09T03:07:46;24.93;;;13.83;;
21266;SDS011;10791;53.108;18.326;2023-05-09T03:12:50;19.97;;;13.77;;
21266;SDS011;10791;53.108;18.326;2023-05-09T03:17:53;27.93;;;14.80;;
21266;SDS011;10791;53.108;18.326;2023-05-09T03:22:56;31.33;;;18.83;;
21266;SDS011;10791;53.108;18.326;2023-05-09T03:27:59;24.70;;;15.13;;
21266;SDS011;10791;53.108;18.326;2023-05-09T03:33:02;22.07;;;14.53;;
21266;SDS011;10791;53.108;18.326;2023-05-09T03:38:06;23.40;;;13.50;;
21266;SDS011;10791;53.108;18.326;2023-05-09T03:43:09;28.40;;;17.60;;
21266;SDS011;10791;53.108;18.326;2023-05-09T03:48:12;68.07;;;31.40;;
21266;SDS011;10791;53.108;18.326;2023-05-09T03:53:15;56.53;;;28.33;;
21266;SDS011;10791;53.108;18.326;2023-05-09T03:58:18;51.00;;;28.27;;
21266;SDS011;10791;53.108;18.326;2023-05-09T04:03:21;43.90;;;25.00;;
21266;SDS011;10791;53.108;18.326;2023-05-09T04:08:25;32.17;;;18.77;;
21266;SDS011;10791;53.108;18.326;2023-05-09T04:13:28;40.17;;;23.70;;
21266;SDS011;10791;53.108;18.326;2023-05-09T04:18:33;47.00;;;26.03;;
21266;SDS011;10791;53.108;18.326;2023-05-09T04:23:36;59.77;;;29.50;;
21266;SDS011;10791;53.108;18.326;2023-05-09T04:28:40;49.33;;;24.73;;
21266;SDS011;10791;53.108;18.326;2023-05-09T04:33:43;42.47;;;23.60;;
21266;SDS011;10791;53.108;18.326;2023-05-09T04:38:46;38.37;;;22.50;;
21266;SDS011;10791;53.108;18.326;2023-05-09T04:43:49;35.03;;;22.00;;
21266;SDS011;10791;53.108;18.326;2023-05-09T04:48:53;35.07;;;23.33;;
21266;SDS011;10791;53.108;18.326;2023-05-09T04:53:56;40.17;;;23.63;;
21266;SDS011;10791;53.108;18.326;2023-05-09T04:59:00;35.50;;;22.83;;
21266;SDS011;10791;53.108;18.326;2023-05-09T05:04:03;41.53;;;24.20;;
21266;SDS011;10791;53.108;18.326;2023-05-09T05:09:06;37.30;;;22.30;;
21266;SDS011;10791;53.108;18.326;2023-05-09T05:14:12;37.13;;;23.27;;
21266;SDS011;10791;53.108;18.326;2023-05-09T05:19:18;39.20;;;22.47;;
21266;SDS011;10791;53.108;18.326;2023-05-09T05:24:21;36.97;;;23.97;;
21266;SDS011;10791;53.108;18.326;2023-05-09T05:29:24;34.90;;;23.03;;
21266;SDS011;10791;53.108;18.326;2023-05-09T05:34:28;36.00;;;22.67;;
21266;SDS011;10791;53.108;18.326;2023-05-09T05:39:31;34.63;;;22.13;;
21266;SDS011;10791;53.108;18.326;2023-05-09T05:44:35;30.70;;;22.13;;
21266;SDS011;10791;53.108;18.326;2023-05-09T05:49:38;30.87;;;20.50;;
21266;SDS011;10791;53.108;18.326;2023-05-09T05:54:41;29.93;;;20.77;;
21266;SDS011;10791;53.108;18.326;2023-05-09T05:59:48;32.23;;;21.33;;
21266;SDS011;10791;53.108;18.326;2023-05-09T06:04:52;30.93;;;20.60;;
21266;SDS011;10791;53.108;18.326;2023-05-09T06:09:57;28.97;;;20.60;;
21266;SDS011;10791;53.108;18.326;2023-05-09T06:15:00;29.43;;;19.93;;
21266;SDS011;10791;53.108;18.326;2023-05-09T06:20:07;29.17;;;20.27;;
21266;SDS011;10791;53.108;18.326;2023-05-09T06:25:10;26.00;;;18.63;;
21266;SDS011;10791;53.108;18.326;2023-05-09T06:30:14;26.53;;;14.40;;
21266;SDS011;10791;53.108;18.326;2023-05-09T06:35:27;15.27;;;11.27;;
21266;SDS011;10791;53.108;18.326;2023-05-09T06:40:30;12.03;;;8.30;;
21266;SDS011;10791;53.108;18.326;2023-05-09T06:45:34;11.13;;;6.63;;
21266;SDS011;10791;53.108;18.326;2023-05-09T06:50:37;8.33;;;5.63;;
21266;SDS011;10791;53.108;18.326;2023-05-09T06:55:40;7.10;;;4.80;;
21266;SDS011;10791;53.108;18.326;2023-05-09T07:00:44;7.67;;;3.93;;
21266;SDS011;10791;53.108;18.326;2023-05-09T07:05:47;8.97;;;4.17;;
21266;SDS011;10791;53.108;18.326;2023-05-09T07:10:50;5.13;;;3.33;;
21266;SDS011;10791;53.108;18.326;2023-05-09T07:15:53;6.97;;;3.87;;
21266;SDS011;10791;53.108;18.326;2023-05-09T07:20:56;5.20;;;2.53;;
21266;SDS011;10791;53.108;18.326;2023-05-09T07:25:59;6.47;;;3.40;;
21266;SDS011;10791;53.108;18.326;2023-05-09T07:31:03;5.63;;;3.17;;
21266;SDS011;10791;53.108;18.326;2023-05-09T07:36:07;5.33;;;2.73;;
21266;SDS011;10791;53.108;18.326;2023-05-09T07:41:14;4.47;;;3.00;;
21266;SDS011;10791;53.108;18.326;2023-05-09T07:46:17;3.90;;;2.93;;
21266;SDS011;10791;53.108;18.326;2023-05-09T07:51:21;4.57;;;2.37;;
21266;SDS011;10791;53.108;18.326;2023-05-09T07:56:24;5.40;;;2.40;;
21266;SDS011;10791;53.108;18.326;2023-05-09T08:01:27;7.55;;;2.67;;
21266;SDS011;10791;53.108;18.326;2023-05-09T08:06:31;4.63;;;2.17;;
21266;SDS011;10791;53.108;18.326;2023-05-09T08:11:34;5.83;;;2.43;;
21266;SDS011;10791;53.108;18.326;2023-05-09T08:16:37;6.20;;;2.10;;
21266;SDS011;10791;53.108;18.326;2023-05-09T08:21:42;6.88;;;2.42;;
21266;SDS011;10791;53.108;18.326;2023-05-09T08:26:51;4.63;;;2.50;;
21266;SDS011;10791;53.108;18.326;2023-05-09T08:31:54;4.47;;;2.20;;
21266;SDS011;10791;53.108;18.326;2023-05-09T08:36:57;5.43;;;2.60;;
21266;SDS011;10791;53.108;18.326;2023-05-09T08:42:01;6.20;;;2.92;;
21266;SDS011;10791;53.108;18.326;2023-05-09T08:47:04;3.67;;;2.30;;
21266;SDS011;10791;53.108;18.326;2023-05-09T08:52:08;4.50;;;2.70;;
21266;SDS011;10791;53.108;18.326;2023-05-09T08:57:13;4.75;;;2.95;;
21266;SDS011;10791;53.108;18.326;2023-05-09T09:02:16;6.13;;;3.03;;
21266;SDS011;10791;53.108;18.326;2023-05-09T09:07:21;5.72;;;2.83;;
21266;SDS011;10791;53.108;18.326;2023-05-09T09:12:24;3.83;;;2.60;;
21266;SDS011;10791;53.108;18.326;2023-05-09T09:17:28;5.00;;;2.90;;
21266;SDS011;10791;53.108;18.326;2023-05-09T09:22:32;4.13;;;2.80;;
21266;SDS011;10791;53.108;18.326;2023-05-09T09:27:36;3.20;;;2.40;;
21266;SDS011;10791;53.108;18.326;2023-05-09T09:32:39;6.25;;;2.80;;
21266;SDS011;10791;53.108;18.326;2023-05-09T09:37:43;8.10;;;3.38;;
21266;SDS011;10791;53.108;18.326;2023-05-09T09:42:46;7.53;;;3.38;;
21266;SDS011;10791;53.108;18.326;2023-05-09T09:47:50;5.82;;;2.97;;
21266;SDS011;10791;53.108;18.326;2023-05-09T09:52:53;3.53;;;2.50;;
21266;SDS011;10791;53.108;18.326;2023-05-09T09:57:58;3.35;;;2.35;;
21266;SDS011;10791;53.108;18.326;2023-05-09T10:03:01;5.05;;;2.88;;
21266;SDS011;10791;53.108;18.326;2023-05-09T10:08:05;8.25;;;4.15;;
21266;SDS011;10791;53.108;18.326;2023-05-09T10:13:11;5.68;;;3.00;;
21266;SDS011;10791;53.108;18.326;2023-05-09T10:18:14;4.30;;;2.80;;
21266;SDS011;10791;53.108;18.326;2023-05-09T10:23:21;5.72;;;3.42;;
21266;SDS011;10791;53.108;18.326;2023-05-09T10:28:27;4.38;;;2.55;;
21266;SDS011;10791;53.108;18.326;2023-05-09T10:33:40;8.13;;;2.63;;
21266;SDS011;10791;53.108;18.326;2023-05-09T10:38:47;8.95;;;2.70;;
21266;SDS011;10791;53.108;18.326;2023-05-09T10:43:55;4.32;;;2.90;;
21266;SDS011;10791;53.108;18.326;2023-05-09T10:49:01;5.00;;;2.60;;
21266;SDS011;10791;53.108;18.326;2023-05-09T10:54:12;7.43;;;2.97;;
21266;SDS011;10791;53.108;18.326;2023-05-09T10:59:33;8.55;;;2.65;;
21266;SDS011;10791;53.108;18.326;2023-05-09T11:04:39;7.72;;;2.75;;
21266;SDS011;10791;53.108;18.326;2023-05-09T11:09:42;6.07;;;3.08;;
21266;SDS011;10791;53.108;18.326;2023-05-09T11:14:46;4.13;;;2.40;;
21266;SDS011;10791;53.108;18.326;2023-05-09T11:30:06;9.93;;;3.05;;
21266;SDS011;10791;53.108;18.326;2023-05-09T11:35:17;4.60;;;2.63;;
21266;SDS011;10791;53.108;18.326;2023-05-09T11:40:22;3.47;;;2.05;;
21266;SDS011;10791;53.108;18.326;2023-05-09T11:45:29;5.30;;;2.35;;
21266;SDS011;10791;53.108;18.326;2023-05-09T11:50:34;4.25;;;2.38;;
21266;SDS011;10791;53.108;18.326;2023-05-09T11:55:39;4.07;;;2.53;;
21266;SDS011;10791;53.108;18.326;2023-05-09T12:00:43;4.63;;;2.97;;
21266;SDS011;10791;53.108;18.326;2023-05-09T12:05:47;6.47;;;2.45;;
21266;SDS011;10791;53.108;18.326;2023-05-09T12:10:50;3.38;;;2.05;;
21266;SDS011;10791;53.108;18.326;2023-05-09T12:15:59;3.33;;;2.25;;
21266;SDS011;10791;53.108;18.326;2023-05-09T12:21:05;5.45;;;2.80;;
21266;SDS011;10791;53.108;18.326;2023-05-09T12:26:09;4.13;;;2.28;;
21266;SDS011;10791;53.108;18.326;2023-05-09T12:31:12;6.93;;;2.50;;
21266;SDS011;10791;53.108;18.326;2023-05-09T12:36:16;3.67;;;2.53;;
21266;SDS011;10791;53.108;18.326;2023-05-09T12:41:19;5.57;;;2.35;;
21266;SDS011;10791;53.108;18.326;2023-05-09T12:46:41;6.03;;;2.72;;
21266;SDS011;10791;53.108;18.326;2023-05-09T12:51:57;4.13;;;2.63;;
21266;SDS011;10791;53.108;18.326;2023-05-09T12:57:05;7.18;;;2.90;;
21266;SDS011;10791;53.108;18.326;2023-05-09T13:02:26;4.05;;;2.50;;
21266;SDS011;10791;53.108;18.326;2023-05-09T13:07:37;4.72;;;2.75;;
21266;SDS011;10791;53.108;18.326;2023-05-09T13:12:43;16.77;;;4.35;;
21266;SDS011;10791;53.108;18.326;2023-05-09T13:17:50;5.57;;;3.03;;
21266;SDS011;10791;53.108;18.326;2023-05-09T13:22:53;11.00;;;3.90;;
21266;SDS011;10791;53.108;18.326;2023-05-09T13:27:56;9.52;;;4.13;;
21266;SDS011;10791;53.108;18.326;2023-05-09T13:33:00;6.65;;;2.67;;
21266;SDS011;10791;53.108;18.326;2023-05-09T13:38:13;4.68;;;3.33;;
21266;SDS011;10791;53.108;18.326;2023-05-09T13:43:17;9.15;;;3.50;;
21266;SDS011;10791;53.108;18.326;2023-05-09T13:48:20;23.73;;;10.32;;
21266;SDS011;10791;53.108;18.326;2023-05-09T13:53:23;7.80;;;3.67;;
21266;SDS011;10791;53.108;18.326;2023-05-09T13:58:26;8.15;;;3.60;;
21266;SDS011;10791;53.108;18.326;2023-05-09T14:03:29;6.07;;;2.88;;
21266;SDS011;10791;53.108;18.326;2023-05-09T14:08:33;5.68;;;2.70;;
21266;SDS011;10791;53.108;18.326;2023-05-09T14:13:36;4.30;;;2.45;;
21266;SDS011;10791;53.108;18.326;2023-05-09T14:18:39;4.97;;;2.42;;
21266;SDS011;10791;53.108;18.326;2023-05-09T14:23:42;6.55;;;3.53;;
21266;SDS011;10791;53.108;18.326;2023-05-09T14:28:46;12.48;;;3.22;;
21266;SDS011;10791;53.108;18.326;2023-05-09T14:33:49;6.38;;;2.85;;
21266;SDS011;10791;53.108;18.326;2023-05-09T14:38:52;4.72;;;3.05;;
21266;SDS011;10791;53.108;18.326;2023-05-09T14:43:55;4.75;;;2.88;;
21266;SDS011;10791;53.108;18.326;2023-05-09T14:48:58;4.15;;;2.40;;
21266;SDS011;10791;53.108;18.326;2023-05-09T14:54:05;5.65;;;2.83;;
21266;SDS011;10791;53.108;18.326;2023-05-09T14:59:09;7.13;;;2.95;;
21266;SDS011;10791;53.108;18.326;2023-05-09T15:04:12;5.68;;;2.53;;
21266;SDS011;10791;53.108;18.326;2023-05-09T15:09:16;5.35;;;2.40;;
21266;SDS011;10791;53.108;18.326;2023-05-09T15:14:23;3.90;;;2.70;;
21266;SDS011;10791;53.108;18.326;2023-05-09T15:19:28;6.22;;;2.45;;
21266;SDS011;10791;53.108;18.326;2023-05-09T15:24:33;5.60;;;2.65;;
21266;SDS011;10791;53.108;18.326;2023-05-09T15:29:36;6.70;;;2.10;;
21266;SDS011;10791;53.108;18.326;2023-05-09T15:34:39;4.03;;;1.88;;
21266;SDS011;10791;53.108;18.326;2023-05-09T15:39:42;5.70;;;2.70;;
21266;SDS011;10791;53.108;18.326;2023-05-09T15:44:47;4.38;;;2.70;;
21266;SDS011;10791;53.108;18.326;2023-05-09T15:49:51;5.65;;;2.33;;
21266;SDS011;10791;53.108;18.326;2023-05-09T15:54:54;4.05;;;2.63;;
21266;SDS011;10791;53.108;18.326;2023-05-09T15:59:58;6.32;;;2.40;;
21266;SDS011;10791;53.108;18.326;2023-05-09T16:05:01;4.35;;;2.20;;
21266;SDS011;10791;53.108;18.326;2023-05-09T16:10:04;4.10;;;2.40;;
21266;SDS011;10791;53.108;18.326;2023-05-09T16:15:08;3.08;;;1.60;;
21266;SDS011;10791;53.108;18.326;2023-05-09T16:20:11;4.35;;;2.38;;
21266;SDS011;10791;53.108;18.326;2023-05-09T16:25:15;7.40;;;2.45;;
21266;SDS011;10791;53.108;18.326;2023-05-09T16:30:19;4.10;;;2.97;;
21266;SDS011;10791;53.108;18.326;2023-05-09T16:35:22;4.80;;;2.20;;
21266;SDS011;10791;53.108;18.326;2023-05-09T16:40:25;4.97;;;2.40;;
21266;SDS011;10791;53.108;18.326;2023-05-09T16:45:28;3.90;;;2.30;;
21266;SDS011;10791;53.108;18.326;2023-05-09T16:50:31;5.90;;;2.90;;
21266;SDS011;10791;53.108;18.326;2023-05-09T16:55:35;4.68;;;3.35;;
21266;SDS011;10791;53.108;18.326;2023-05-09T17:00:38;5.07;;;3.22;;
21266;SDS011;10791;53.108;18.326;2023-05-09T17:05:41;4.97;;;2.70;;
21266;SDS011;10791;53.108;18.326;2023-05-09T17:10:44;4.55;;;2.88;;
21266;SDS011;10791;53.108;18.326;2023-05-09T17:15:52;6.15;;;3.25;;
21266;SDS011;10791;53.108;18.326;2023-05-09T17:20:55;7.15;;;2.70;;
21266;SDS011;10791;53.108;18.326;2023-05-09T17:25:59;3.65;;;2.97;;
21266;SDS011;10791;53.108;18.326;2023-05-09T17:31:03;5.63;;;3.55;;
21266;SDS011;10791;53.108;18.326;2023-05-09T17:36:06;11.60;;;6.57;;
21266;SDS011;10791;53.108;18.326;2023-05-09T17:41:09;6.75;;;3.80;;
21266;SDS011;10791;53.108;18.326;2023-05-09T17:46:12;6.57;;;3.78;;
21266;SDS011;10791;53.108;18.326;2023-05-09T17:51:16;7.47;;;4.47;;
21266;SDS011;10791;53.108;18.326;2023-05-09T17:56:19;11.55;;;5.75;;
21266;SDS011;10791;53.108;18.326;2023-05-09T18:01:23;7.95;;;3.72;;
21266;SDS011;10791;53.108;18.326;2023-05-09T18:06:27;6.88;;;2.80;;
21266;SDS011;10791;53.108;18.326;2023-05-09T18:11:31;5.15;;;2.88;;
21266;SDS011;10791;53.108;18.326;2023-05-09T18:16:34;5.55;;;2.80;;
21266;SDS011;10791;53.108;18.326;2023-05-09T18:21:37;5.22;;;3.15;;
21266;SDS011;10791;53.108;18.326;2023-05-09T18:26:41;7.47;;;3.90;;
21266;SDS011;10791;53.108;18.326;2023-05-09T18:31:45;4.35;;;2.78;;
21266;SDS011;10791;53.108;18.326;2023-05-09T18:36:48;10.20;;;3.47;;
21266;SDS011;10791;53.108;18.326;2023-05-09T18:41:53;9.90;;;4.80;;
21266;SDS011;10791;53.108;18.326;2023-05-09T18:46:57;8.20;;;4.37;;
21266;SDS011;10791;53.108;18.326;2023-05-09T18:52:01;13.53;;;5.90;;
21266;SDS011;10791;53.108;18.326;2023-05-09T18:57:05;16.30;;;7.43;;
21266;SDS011;10791;53.108;18.326;2023-05-09T19:02:10;25.67;;;10.17;;
21266;SDS011;10791;53.108;18.326;2023-05-09T19:07:14;21.17;;;10.63;;
21266;SDS011;10791;53.108;18.326;2023-05-09T19:12:17;16.37;;;8.67;;
21266;SDS011;10791;53.108;18.326;2023-05-09T19:17:21;20.17;;;9.80;;
21266;SDS011;10791;53.108;18.326;2023-05-09T19:22:27;16.63;;;9.03;;
21266;SDS011;10791;53.108;18.326;2023-05-09T19:27:31;19.33;;;10.60;;
21266;SDS011;10791;53.108;18.326;2023-05-09T19:32:34;16.27;;;7.73;;
21266;SDS011;10791;53.108;18.326;2023-05-09T19:37:40;14.53;;;6.57;;
21266;SDS011;10791;53.108;18.326;2023-05-09T19:42:45;15.27;;;5.90;;
21266;SDS011;10791;53.108;18.326;2023-05-09T19:47:52;10.60;;;5.50;;
21266;SDS011;10791;53.108;18.326;2023-05-09T19:52:59;14.17;;;5.93;;
21266;SDS011;10791;53.108;18.326;2023-05-09T19:58:04;10.27;;;6.60;;
21266;SDS011;10791;53.108;18.326;2023-05-09T20:03:08;15.37;;;7.07;;
21266;SDS011;10791;53.108;18.326;2023-05-09T20:08:12;13.93;;;6.73;;
21266;SDS011;10791;53.108;18.326;2023-05-09T20:13:16;11.00;;;7.00;;
21266;SDS011;10791;53.108;18.326;2023-05-09T20:18:20;13.33;;;6.87;;
21266;SDS011;10791;53.108;18.326;2023-05-09T20:23:25;13.13;;;6.40;;
21266;SDS011;10791;53.108;18.326;2023-05-09T20:28:33;12.77;;;7.47;;
21266;SDS011;10791;53.108;18.326;2023-05-09T20:33:37;13.17;;;6.93;;
21266;SDS011;10791;53.108;18.326;2023-05-09T20:38:43;12.37;;;6.33;;
21266;SDS011;10791;53.108;18.326;2023-05-09T20:43:47;10.70;;;5.23;;
21266;SDS011;10791;53.108;18.326;2023-05-09T20:48:55;9.60;;;5.43;;
21266;SDS011;10791;53.108;18.326;2023-05-09T20:53:59;14.70;;;7.57;;
21266;SDS011;10791;53.108;18.326;2023-05-09T20:59:02;21.10;;;9.03;;
21266;SDS011;10791;53.108;18.326;2023-05-09T21:04:06;18.60;;;10.07;;
21266;SDS011;10791;53.108;18.326;2023-05-09T21:09:10;21.33;;;11.40;;
21266;SDS011;10791;53.108;18.326;2023-05-09T21:14:13;20.57;;;9.67;;
21266;SDS011;10791;53.108;18.326;2023-05-09T21:19:16;14.77;;;7.30;;
21266;SDS011;10791;53.108;18.326;2023-05-09T21:24:19;10.63;;;5.43;;
21266;SDS011;10791;53.108;18.326;2023-05-09T21:29:22;12.83;;;7.37;;
21266;SDS011;10791;53.108;18.326;2023-05-09T21:34:25;13.10;;;6.70;;
21266;SDS011;10791;53.108;18.326;2023-05-09T21:39:29;13.07;;;7.67;;
21266;SDS011;10791;53.108;18.326;2023-05-09T21:44:34;8.67;;;5.30;;
21266;SDS011;10791;53.108;18.326;2023-05-09T21:49:37;9.70;;;4.60;;
21266;SDS011;10791;53.108;18.326;2023-05-09T21:54:40;9.60;;;4.77;;
21266;SDS011;10791;53.108;18.326;2023-05-09T21:59:43;9.17;;;5.03;;
21266;SDS011;10791;53.108;18.326;2023-05-09T22:04:46;6.70;;;3.33;;
21266;SDS011;10791;53.108;18.326;2023-05-09T22:09:50;7.33;;;3.80;;
21266;SDS011;10791;53.108;18.326;2023-05-09T22:14:54;7.80;;;4.07;;
21266;SDS011;10791;53.108;18.326;2023-05-09T22:19:57;5.67;;;3.37;;
21266;SDS011;10791;53.108;18.326;2023-05-09T22:25:01;5.73;;;3.40;;
21266;SDS011;10791;53.108;18.326;2023-05-09T22:30:06;5.40;;;3.13;;
21266;SDS011;10791;53.108;18.326;2023-05-09T22:35:10;9.07;;;3.40;;
21266;SDS011;10791;53.108;18.326;2023-05-09T22:40:13;8.67;;;4.10;;
21266;SDS011;10791;53.108;18.326;2023-05-09T22:45:17;5.80;;;3.43;;
21266;SDS011;10791;53.108;18.326;2023-05-09T22:50:21;7.27;;;3.90;;
21266;SDS011;10791;53.108;18.326;2023-05-09T22:55:24;6.23;;;3.83;;
21266;SDS011;10791;53.108;18.326;2023-05-09T23:00:27;6.57;;;4.00;;
21266;SDS011;10791;53.108;18.326;2023-05-09T23:05:30;5.67;;;3.53;;
21266;SDS011;10791;53.108;18.326;2023-05-09T23:10:33;6.93;;;4.03;;
21266;SDS011;10791;53.108;18.326;2023-05-09T23:15:36;5.63;;;3.43;;
21266;SDS011;10791;53.108;18.326;2023-05-09T23:20:40;8.60;;;4.10;;
21266;SDS011;10791;53.108;18.326;2023-05-09T23:25:43;8.53;;;3.97;;
21266;SDS011;10791;53.108;18.326;2023-05-09T23:30:46;5.87;;;3.77;;
21266;SDS011;10791;53.108;18.326;2023-05-09T23:35:49;7.13;;;3.47;;
21266;SDS011;10791;53.108;18.326;2023-05-09T23:40:52;6.00;;;3.70;;
21266;SDS011;10791;53.108;18.326;2023-05-09T23:45:57;6.43;;;3.50;;
21266;SDS011;10791;53.108;18.326;2023-05-09T23:51:00;6.33;;;3.53;;
21266;SDS011;10791;53.108;18.326;2023-05-09T23:56:03;7.17;;;4.10;;
